Terminal Aerodrome Forecast
Issued by NWS Atlanta, GA

Current Version | Previous Version | Text Only | Print | Product List | Glossary On
Versions: 1 2 3 4 5 6 7 8 9 10 11 12 13 14 15 16 17 18 19 20 21 22 23 24 25 26 27 28 29 30 31 32 33 34 35 36 37 38 39
000
FTUS42 KFFC 012326
TAFATL
TAF
KATL 012326Z 0200/0306 17012KT 6SM -RA BR SCT015 OVC035
      TEMPO 0200/0202 5SM RA BR SCT007 OVC015
     FM020200 19012KT 4SM -RA BR OVC007
     FM020800 26012KT 3SM -RA BKN008 OVC012
     FM021000 29012G20KT 5SM -RA SCT008 OVC012
     FM021500 30015G25KT P6SM SCT020 BKN035
     FM021800 31016G26KT P6SM SCT050
     FM030000 32010KT P6SM SKC=

USA.gov is the U.S. government's official web portal to all federal, state and local government web resources and services.